sensor_id;sensor_type;location;lat;lon;timestamp;P1;durP1;ratioP1;P2;durP2;ratioP2
21095;SDS011;10706;49.036;12.112;2023-08-21T00:01:42;18.45;;;8.32;;
21095;SDS011;10706;49.036;12.112;2023-08-21T00:04:08;16.25;;;8.77;;
21095;SDS011;10706;49.036;12.112;2023-08-21T00:06:33;17.92;;;8.68;;
21095;SDS011;10706;49.036;12.112;2023-08-21T00:09:00;18.10;;;8.90;;
21095;SDS011;10706;49.036;12.112;2023-08-21T00:11:27;18.90;;;8.88;;
21095;SDS011;10706;49.036;12.112;2023-08-21T00:13:53;16.50;;;8.18;;
21095;SDS011;10706;49.036;12.112;2023-08-21T00:16:18;17.23;;;8.52;;
21095;SDS011;10706;49.036;12.112;2023-08-21T00:18:44;16.60;;;8.93;;
21095;SDS011;10706;49.036;12.112;2023-08-21T00:21:10;17.13;;;9.05;;
21095;SDS011;10706;49.036;12.112;2023-08-21T00:23:36;18.10;;;9.13;;
21095;SDS011;10706;49.036;12.112;2023-08-21T00:26:01;19.23;;;9.40;;
21095;SDS011;10706;49.036;12.112;2023-08-21T00:28:27;17.98;;;8.88;;
21095;SDS011;10706;49.036;12.112;2023-08-21T00:31:04;18.00;;;8.82;;
21095;SDS011;10706;49.036;12.112;2023-08-21T00:33:31;15.38;;;8.48;;
21095;SDS011;10706;49.036;12.112;2023-08-21T00:35:57;16.58;;;7.80;;
21095;SDS011;10706;49.036;12.112;2023-08-21T00:38:24;20.10;;;8.70;;
21095;SDS011;10706;49.036;12.112;2023-08-21T00:40:50;22.42;;;10.02;;
21095;SDS011;10706;49.036;12.112;2023-08-21T00:43:16;19.17;;;10.00;;
21095;SDS011;10706;49.036;12.112;2023-08-21T00:45:42;18.83;;;10.13;;
21095;SDS011;10706;49.036;12.112;2023-08-21T00:48:11;21.13;;;9.10;;
21095;SDS011;10706;49.036;12.112;2023-08-21T00:50:38;18.48;;;8.95;;
21095;SDS011;10706;49.036;12.112;2023-08-21T00:53:04;16.17;;;8.63;;
21095;SDS011;10706;49.036;12.112;2023-08-21T00:55:30;19.90;;;9.40;;
21095;SDS011;10706;49.036;12.112;2023-08-21T00:57:56;18.23;;;8.88;;
21095;SDS011;10706;49.036;12.112;2023-08-21T01:00:24;18.30;;;8.77;;
21095;SDS011;10706;49.036;12.112;2023-08-21T01:02:52;20.33;;;9.65;;
21095;SDS011;10706;49.036;12.112;2023-08-21T01:05:18;18.30;;;8.93;;
21095;SDS011;10706;49.036;12.112;2023-08-21T01:07:57;17.55;;;9.80;;
21095;SDS011;10706;49.036;12.112;2023-08-21T01:16:13;21.38;;;8.98;;
21095;SDS011;10706;49.036;12.112;2023-08-21T01:18:40;20.85;;;9.52;;
21095;SDS011;10706;49.036;12.112;2023-08-21T01:21:08;19.85;;;9.63;;
21095;SDS011;10706;49.036;12.112;2023-08-21T01:23:34;18.35;;;9.60;;
21095;SDS011;10706;49.036;12.112;2023-08-21T01:26:01;18.10;;;9.45;;
21095;SDS011;10706;49.036;12.112;2023-08-21T01:28:29;16.73;;;9.73;;
21095;SDS011;10706;49.036;12.112;2023-08-21T01:31:22;20.75;;;10.98;;
21095;SDS011;10706;49.036;12.112;2023-08-21T01:33:53;20.02;;;10.48;;
21095;SDS011;10706;49.036;12.112;2023-08-21T01:36:24;19.35;;;10.18;;
21095;SDS011;10706;49.036;12.112;2023-08-21T01:38:51;17.52;;;9.93;;
21095;SDS011;10706;49.036;12.112;2023-08-21T01:41:18;18.63;;;9.73;;
21095;SDS011;10706;49.036;12.112;2023-08-21T01:43:43;18.52;;;9.20;;
21095;SDS011;10706;49.036;12.112;2023-08-21T01:46:09;20.80;;;9.45;;
21095;SDS011;10706;49.036;12.112;2023-08-21T01:48:35;19.88;;;9.05;;
21095;SDS011;10706;49.036;12.112;2023-08-21T01:51:01;22.27;;;10.70;;
21095;SDS011;10706;49.036;12.112;2023-08-21T01:53:27;19.60;;;9.50;;
21095;SDS011;10706;49.036;12.112;2023-08-21T01:55:53;17.10;;;9.68;;
21095;SDS011;10706;49.036;12.112;2023-08-21T01:58:19;19.58;;;9.38;;
21095;SDS011;10706;49.036;12.112;2023-08-21T02:00:45;17.50;;;9.98;;
21095;SDS011;10706;49.036;12.112;2023-08-21T02:03:12;17.83;;;9.65;;
21095;SDS011;10706;49.036;12.112;2023-08-21T02:05:39;18.63;;;8.75;;
21095;SDS011;10706;49.036;12.112;2023-08-21T02:08:06;18.35;;;9.25;;
21095;SDS011;10706;49.036;12.112;2023-08-21T02:10:34;22.35;;;10.27;;
21095;SDS011;10706;49.036;12.112;2023-08-21T02:13:00;18.00;;;9.95;;
21095;SDS011;10706;49.036;12.112;2023-08-21T02:15:26;17.20;;;9.38;;
21095;SDS011;10706;49.036;12.112;2023-08-21T02:17:52;23.75;;;10.60;;
21095;SDS011;10706;49.036;12.112;2023-08-21T02:20:17;18.23;;;10.57;;
21095;SDS011;10706;49.036;12.112;2023-08-21T02:22:43;22.17;;;10.55;;
21095;SDS011;10706;49.036;12.112;2023-08-21T02:25:09;19.60;;;10.30;;
21095;SDS011;10706;49.036;12.112;2023-08-21T02:27:35;17.90;;;9.45;;
21095;SDS011;10706;49.036;12.112;2023-08-21T02:30:01;18.83;;;9.98;;
21095;SDS011;10706;49.036;12.112;2023-08-21T02:32:28;18.65;;;10.27;;
21095;SDS011;10706;49.036;12.112;2023-08-21T02:34:53;21.20;;;9.90;;
21095;SDS011;10706;49.036;12.112;2023-08-21T02:37:19;18.33;;;9.88;;
21095;SDS011;10706;49.036;12.112;2023-08-21T02:39:45;17.00;;;9.15;;
21095;SDS011;10706;49.036;12.112;2023-08-21T02:42:11;16.73;;;9.68;;
21095;SDS011;10706;49.036;12.112;2023-08-21T02:44:36;25.08;;;10.13;;
21095;SDS011;10706;49.036;12.112;2023-08-21T02:47:02;18.15;;;9.88;;
21095;SDS011;10706;49.036;12.112;2023-08-21T02:49:28;20.85;;;9.95;;
21095;SDS011;10706;49.036;12.112;2023-08-21T02:51:53;20.27;;;9.63;;
21095;SDS011;10706;49.036;12.112;2023-08-21T02:54:19;21.98;;;10.63;;
21095;SDS011;10706;49.036;12.112;2023-08-21T02:56:45;17.33;;;9.40;;
21095;SDS011;10706;49.036;12.112;2023-08-21T02:59:11;20.15;;;9.82;;
21095;SDS011;10706;49.036;12.112;2023-08-21T03:01:36;18.67;;;9.32;;
21095;SDS011;10706;49.036;12.112;2023-08-21T03:04:02;19.17;;;9.90;;
21095;SDS011;10706;49.036;12.112;2023-08-21T03:06:28;16.52;;;9.10;;
21095;SDS011;10706;49.036;12.112;2023-08-21T03:08:54;19.33;;;10.32;;
21095;SDS011;10706;49.036;12.112;2023-08-21T03:11:19;18.15;;;9.38;;
21095;SDS011;10706;49.036;12.112;2023-08-21T03:13:45;23.10;;;9.68;;
21095;SDS011;10706;49.036;12.112;2023-08-21T03:16:11;19.17;;;9.93;;
21095;SDS011;10706;49.036;12.112;2023-08-21T03:18:53;17.02;;;9.98;;
21095;SDS011;10706;49.036;12.112;2023-08-21T03:21:24;19.92;;;9.95;;
21095;SDS011;10706;49.036;12.112;2023-08-21T03:23:50;19.20;;;9.63;;
21095;SDS011;10706;49.036;12.112;2023-08-21T03:26:19;22.30;;;10.75;;
21095;SDS011;10706;49.036;12.112;2023-08-21T03:28:45;19.15;;;10.23;;
21095;SDS011;10706;49.036;12.112;2023-08-21T03:31:10;17.23;;;7.55;;
21095;SDS011;10706;49.036;12.112;2023-08-21T03:33:36;16.27;;;8.07;;
21095;SDS011;10706;49.036;12.112;2023-08-21T03:36:02;17.85;;;8.32;;
21095;SDS011;10706;49.036;12.112;2023-08-21T03:38:28;20.13;;;9.25;;
21095;SDS011;10706;49.036;12.112;2023-08-21T03:40:53;20.73;;;7.53;;
21095;SDS011;10706;49.036;12.112;2023-08-21T03:43:19;21.40;;;8.00;;
21095;SDS011;10706;49.036;12.112;2023-08-21T03:45:45;15.80;;;8.27;;
21095;SDS011;10706;49.036;12.112;2023-08-21T03:48:10;20.38;;;7.78;;
21095;SDS011;10706;49.036;12.112;2023-08-21T03:50:38;16.60;;;8.05;;
21095;SDS011;10706;49.036;12.112;2023-08-21T03:53:04;18.20;;;8.30;;
21095;SDS011;10706;49.036;12.112;2023-08-21T03:55:30;16.48;;;8.85;;
21095;SDS011;10706;49.036;12.112;2023-08-21T03:57:56;16.50;;;8.38;;
21095;SDS011;10706;49.036;12.112;2023-08-21T04:00:21;17.15;;;8.50;;
21095;SDS011;10706;49.036;12.112;2023-08-21T04:02:47;16.50;;;8.18;;
21095;SDS011;10706;49.036;12.112;2023-08-21T04:05:13;18.73;;;8.18;;
21095;SDS011;10706;49.036;12.112;2023-08-21T04:07:39;22.67;;;9.10;;
21095;SDS011;10706;49.036;12.112;2023-08-21T04:10:05;18.40;;;9.23;;
21095;SDS011;10706;49.036;12.112;2023-08-21T04:12:31;17.38;;;8.40;;
21095;SDS011;10706;49.036;12.112;2023-08-21T04:14:57;18.45;;;9.10;;
21095;SDS011;10706;49.036;12.112;2023-08-21T04:17:23;19.25;;;9.13;;
21095;SDS011;10706;49.036;12.112;2023-08-21T04:19:51;20.13;;;8.35;;
21095;SDS011;10706;49.036;12.112;2023-08-21T04:22:17;17.75;;;8.38;;
21095;SDS011;10706;49.036;12.112;2023-08-21T04:24:43;18.25;;;8.45;;
21095;SDS011;10706;49.036;12.112;2023-08-21T04:27:09;20.10;;;8.60;;
21095;SDS011;10706;49.036;12.112;2023-08-21T04:29:35;16.30;;;8.05;;
21095;SDS011;10706;49.036;12.112;2023-08-21T04:32:01;20.08;;;8.65;;
21095;SDS011;10706;49.036;12.112;2023-08-21T04:34:27;17.25;;;8.77;;
21095;SDS011;10706;49.036;12.112;2023-08-21T04:36:53;17.80;;;8.32;;
21095;SDS011;10706;49.036;12.112;2023-08-21T04:39:18;22.40;;;9.75;;
21095;SDS011;10706;49.036;12.112;2023-08-21T04:41:44;22.58;;;9.43;;
21095;SDS011;10706;49.036;12.112;2023-08-21T04:44:10;17.55;;;8.48;;
21095;SDS011;10706;49.036;12.112;2023-08-21T04:46:36;20.55;;;8.85;;
21095;SDS011;10706;49.036;12.112;2023-08-21T04:49:01;15.70;;;8.27;;
21095;SDS011;10706;49.036;12.112;2023-08-21T04:51:27;17.73;;;8.50;;
21095;SDS011;10706;49.036;12.112;2023-08-21T04:53:53;15.75;;;8.02;;
21095;SDS011;10706;49.036;12.112;2023-08-21T04:56:19;17.70;;;8.73;;
21095;SDS011;10706;49.036;12.112;2023-08-21T04:58:44;17.70;;;8.95;;
21095;SDS011;10706;49.036;12.112;2023-08-21T05:01:10;20.63;;;9.77;;
21095;SDS011;10706;49.036;12.112;2023-08-21T05:03:37;17.30;;;8.43;;
21095;SDS011;10706;49.036;12.112;2023-08-21T05:06:02;17.95;;;9.13;;
21095;SDS011;10706;49.036;12.112;2023-08-21T05:08:28;19.08;;;9.15;;
21095;SDS011;10706;49.036;12.112;2023-08-21T05:10:57;15.77;;;8.38;;
21095;SDS011;10706;49.036;12.112;2023-08-21T05:13:24;16.60;;;8.95;;
21095;SDS011;10706;49.036;12.112;2023-08-21T05:15:54;18.38;;;9.80;;
21095;SDS011;10706;49.036;12.112;2023-08-21T05:18:21;18.27;;;8.70;;
21095;SDS011;10706;49.036;12.112;2023-08-21T05:20:48;15.95;;;8.73;;
21095;SDS011;10706;49.036;12.112;2023-08-21T05:23:15;19.08;;;9.35;;
21095;SDS011;10706;49.036;12.112;2023-08-21T05:25:42;17.42;;;9.05;;
21095;SDS011;10706;49.036;12.112;2023-08-21T05:28:09;16.77;;;7.95;;
21095;SDS011;10706;49.036;12.112;2023-08-21T05:30:35;16.80;;;8.93;;
21095;SDS011;10706;49.036;12.112;2023-08-21T05:33:01;22.70;;;9.23;;
21095;SDS011;10706;49.036;12.112;2023-08-21T05:35:28;17.40;;;8.57;;
21095;SDS011;10706;49.036;12.112;2023-08-21T05:37:58;21.90;;;8.48;;
21095;SDS011;10706;49.036;12.112;2023-08-21T05:40:24;17.60;;;8.93;;
21095;SDS011;10706;49.036;12.112;2023-08-21T05:42:50;18.50;;;7.97;;
21095;SDS011;10706;49.036;12.112;2023-08-21T05:45:16;15.70;;;8.07;;
21095;SDS011;10706;49.036;12.112;2023-08-21T05:47:41;17.08;;;8.15;;
21095;SDS011;10706;49.036;12.112;2023-08-21T05:50:07;23.88;;;8.57;;
21095;SDS011;10706;49.036;12.112;2023-08-21T05:52:34;16.88;;;7.88;;
21095;SDS011;10706;49.036;12.112;2023-08-21T05:54:59;17.45;;;8.02;;
21095;SDS011;10706;49.036;12.112;2023-08-21T05:57:25;17.10;;;8.60;;
21095;SDS011;10706;49.036;12.112;2023-08-21T05:59:51;17.10;;;8.15;;
21095;SDS011;10706;49.036;12.112;2023-08-21T06:02:16;16.25;;;8.43;;
21095;SDS011;10706;49.036;12.112;2023-08-21T06:04:42;20.83;;;8.65;;
21095;SDS011;10706;49.036;12.112;2023-08-21T06:07:08;16.98;;;8.57;;
21095;SDS011;10706;49.036;12.112;2023-08-21T06:09:34;18.92;;;8.48;;
21095;SDS011;10706;49.036;12.112;2023-08-21T06:12:01;17.25;;;8.32;;
21095;SDS011;10706;49.036;12.112;2023-08-21T06:14:28;18.35;;;8.73;;
21095;SDS011;10706;49.036;12.112;2023-08-21T06:16:59;16.35;;;7.75;;
21095;SDS011;10706;49.036;12.112;2023-08-21T06:19:26;16.25;;;8.68;;
21095;SDS011;10706;49.036;12.112;2023-08-21T06:21:54;17.10;;;9.05;;
21095;SDS011;10706;49.036;12.112;2023-08-21T06:24:20;16.75;;;8.50;;
21095;SDS011;10706;49.036;12.112;2023-08-21T06:26:47;18.33;;;8.50;;
21095;SDS011;10706;49.036;12.112;2023-08-21T06:29:13;17.95;;;8.32;;
21095;SDS011;10706;49.036;12.112;2023-08-21T06:31:39;18.73;;;7.88;;
21095;SDS011;10706;49.036;12.112;2023-08-21T06:34:04;16.77;;;8.65;;
21095;SDS011;10706;49.036;12.112;2023-08-21T06:36:30;21.02;;;7.97;;
21095;SDS011;10706;49.036;12.112;2023-08-21T06:38:56;18.05;;;8.63;;
21095;SDS011;10706;49.036;12.112;2023-08-21T06:41:22;15.20;;;7.45;;
21095;SDS011;10706;49.036;12.112;2023-08-21T06:43:48;16.55;;;8.20;;
21095;SDS011;10706;49.036;12.112;2023-08-21T06:46:13;22.92;;;8.95;;
21095;SDS011;10706;49.036;12.112;2023-08-21T06:48:39;19.98;;;8.40;;
21095;SDS011;10706;49.036;12.112;2023-08-21T06:51:09;18.35;;;7.85;;
21095;SDS011;10706;49.036;12.112;2023-08-21T06:53:35;18.77;;;9.40;;
21095;SDS011;10706;49.036;12.112;2023-08-21T06:56:01;26.40;;;8.55;;
21095;SDS011;10706;49.036;12.112;2023-08-21T06:58:27;22.42;;;8.38;;
21095;SDS011;10706;49.036;12.112;2023-08-21T07:00:53;17.67;;;7.45;;
21095;SDS011;10706;49.036;12.112;2023-08-21T07:03:20;16.75;;;9.00;;
21095;SDS011;10706;49.036;12.112;2023-08-21T07:05:56;20.75;;;8.98;;
21095;SDS011;10706;49.036;12.112;2023-08-21T07:08:23;20.50;;;8.57;;
21095;SDS011;10706;49.036;12.112;2023-08-21T07:10:50;17.70;;;8.32;;
21095;SDS011;10706;49.036;12.112;2023-08-21T07:13:16;18.27;;;8.13;;
21095;SDS011;10706;49.036;12.112;2023-08-21T07:15:42;19.35;;;8.95;;
21095;SDS011;10706;49.036;12.112;2023-08-21T07:18:08;17.88;;;9.57;;
21095;SDS011;10706;49.036;12.112;2023-08-21T07:20:34;22.23;;;8.40;;
21095;SDS011;10706;49.036;12.112;2023-08-21T07:23:00;23.33;;;8.32;;
21095;SDS011;10706;49.036;12.112;2023-08-21T07:25:26;18.05;;;7.93;;
21095;SDS011;10706;49.036;12.112;2023-08-21T07:27:53;18.98;;;8.05;;
21095;SDS011;10706;49.036;12.112;2023-08-21T07:30:19;19.08;;;7.47;;
21095;SDS011;10706;49.036;12.112;2023-08-21T07:32:47;17.20;;;7.53;;
21095;SDS011;10706;49.036;12.112;2023-08-21T07:35:13;16.17;;;7.82;;
21095;SDS011;10706;49.036;12.112;2023-08-21T07:37:43;19.55;;;7.50;;
21095;SDS011;10706;49.036;12.112;2023-08-21T07:40:09;14.43;;;6.57;;
21095;SDS011;10706;49.036;12.112;2023-08-21T07:42:36;19.63;;;7.65;;
21095;SDS011;10706;49.036;12.112;2023-08-21T07:45:02;15.93;;;7.70;;
21095;SDS011;10706;49.036;12.112;2023-08-21T07:47:29;13.15;;;6.95;;
21095;SDS011;10706;49.036;12.112;2023-08-21T07:49:55;15.43;;;6.13;;
21095;SDS011;10706;49.036;12.112;2023-08-21T07:52:22;14.93;;;7.35;;
21095;SDS011;10706;49.036;12.112;2023-08-21T07:54:51;15.38;;;7.40;;
21095;SDS011;10706;49.036;12.112;2023-08-21T07:57:20;14.73;;;7.20;;
21095;SDS011;10706;49.036;12.112;2023-08-21T07:59:45;17.48;;;6.78;;
21095;SDS011;10706;49.036;12.112;2023-08-21T08:02:11;15.95;;;7.25;;
21095;SDS011;10706;49.036;12.112;2023-08-21T08:04:37;14.60;;;6.38;;
21095;SDS011;10706;49.036;12.112;2023-08-21T08:07:04;17.65;;;6.70;;
21095;SDS011;10706;49.036;12.112;2023-08-21T08:09:30;16.00;;;6.80;;
21095;SDS011;10706;49.036;12.112;2023-08-21T08:11:55;15.18;;;5.93;;
21095;SDS011;10706;49.036;12.112;2023-08-21T08:14:21;14.05;;;5.90;;
21095;SDS011;10706;49.036;12.112;2023-08-21T08:16:47;16.20;;;6.72;;
21095;SDS011;10706;49.036;12.112;2023-08-21T08:19:13;15.80;;;7.00;;
21095;SDS011;10706;49.036;12.112;2023-08-21T08:21:38;13.30;;;7.15;;
21095;SDS011;10706;49.036;12.112;2023-08-21T08:24:04;15.70;;;6.63;;
21095;SDS011;10706;49.036;12.112;2023-08-21T08:26:30;14.48;;;6.40;;
21095;SDS011;10706;49.036;12.112;2023-08-21T08:28:56;15.48;;;6.82;;
21095;SDS011;10706;49.036;12.112;2023-08-21T08:31:21;15.40;;;6.32;;
21095;SDS011;10706;49.036;12.112;2023-08-21T08:33:48;16.65;;;6.45;;
21095;SDS011;10706;49.036;12.112;2023-08-21T08:36:14;13.50;;;6.40;;
21095;SDS011;10706;49.036;12.112;2023-08-21T08:38:40;16.05;;;6.45;;
21095;SDS011;10706;49.036;12.112;2023-08-21T08:41:10;17.13;;;6.43;;
21095;SDS011;10706;49.036;12.112;2023-08-21T08:43:44;18.10;;;6.85;;
21095;SDS011;10706;49.036;12.112;2023-08-21T08:46:11;16.02;;;7.03;;
21095;SDS011;10706;49.036;12.112;2023-08-21T08:48:37;15.68;;;6.20;;
21095;SDS011;10706;49.036;12.112;2023-08-21T08:51:03;15.43;;;6.05;;
21095;SDS011;10706;49.036;12.112;2023-08-21T08:53:29;12.30;;;5.97;;
21095;SDS011;10706;49.036;12.112;2023-08-21T08:55:57;12.80;;;6.18;;
21095;SDS011;10706;49.036;12.112;2023-08-21T08:58:23;12.98;;;5.60;;
21095;SDS011;10706;49.036;12.112;2023-08-21T09:00:49;15.98;;;6.03;;
21095;SDS011;10706;49.036;12.112;2023-08-21T09:03:15;14.75;;;6.13;;
21095;SDS011;10706;49.036;12.112;2023-08-21T09:05:41;13.80;;;6.32;;
21095;SDS011;10706;49.036;12.112;2023-08-21T09:08:13;15.50;;;6.20;;
21095;SDS011;10706;49.036;12.112;2023-08-21T09:10:40;18.08;;;6.72;;
21095;SDS011;10706;49.036;12.112;2023-08-21T09:13:11;18.42;;;6.70;;
21095;SDS011;10706;49.036;12.112;2023-08-21T09:15:38;13.02;;;7.03;;
21095;SDS011;10706;49.036;12.112;2023-08-21T09:18:11;17.75;;;6.53;;
21095;SDS011;10706;49.036;12.112;2023-08-21T09:20:37;14.18;;;5.78;;
21095;SDS011;10706;49.036;12.112;2023-08-21T09:23:03;15.95;;;5.93;;
21095;SDS011;10706;49.036;12.112;2023-08-21T09:25:35;23.83;;;7.32;;
21095;SDS011;10706;49.036;12.112;2023-08-21T09:28:05;15.77;;;6.30;;
21095;SDS011;10706;49.036;12.112;2023-08-21T09:33:22;19.27;;;6.25;;
21095;SDS011;10706;49.036;12.112;2023-08-21T09:35:50;13.73;;;6.55;;
21095;SDS011;10706;49.036;12.112;2023-08-21T09:38:17;16.42;;;6.25;;
21095;SDS011;10706;49.036;12.112;2023-08-21T09:40:53;12.85;;;6.57;;
21095;SDS011;10706;49.036;12.112;2023-08-21T09:43:20;16.70;;;6.13;;
21095;SDS011;10706;49.036;12.112;2023-08-21T09:45:49;12.77;;;5.75;;
21095;SDS011;10706;49.036;12.112;2023-08-21T09:48:18;14.90;;;6.68;;
21095;SDS011;10706;49.036;12.112;2023-08-21T09:50:46;14.70;;;6.93;;
21095;SDS011;10706;49.036;12.112;2023-08-21T09:53:12;14.93;;;7.13;;
21095;SDS011;10706;49.036;12.112;2023-08-21T09:55:38;18.48;;;6.93;;
21095;SDS011;10706;49.036;12.112;2023-08-21T09:58:05;13.18;;;6.15;;
21095;SDS011;10706;49.036;12.112;2023-08-21T10:00:32;14.55;;;5.93;;
21095;SDS011;10706;49.036;12.112;2023-08-21T10:03:04;14.15;;;6.40;;
21095;SDS011;10706;49.036;12.112;2023-08-21T10:05:33;15.60;;;6.25;;
21095;SDS011;10706;49.036;12.112;2023-08-21T10:08:03;13.20;;;6.03;;
21095;SDS011;10706;49.036;12.112;2023-08-21T10:10:32;12.27;;;5.50;;
21095;SDS011;10706;49.036;12.112;2023-08-21T10:13:03;15.77;;;5.95;;
21095;SDS011;10706;49.036;12.112;2023-08-21T10:15:30;13.65;;;6.10;;
21095;SDS011;10706;49.036;12.112;2023-08-21T10:17:58;12.35;;;5.88;;
21095;SDS011;10706;49.036;12.112;2023-08-21T10:21:15;13.13;;;5.85;;
21095;SDS011;10706;49.036;12.112;2023-08-21T10:23:50;13.77;;;5.45;;
21095;SDS011;10706;49.036;12.112;2023-08-21T10:26:20;14.25;;;5.63;;
21095;SDS011;10706;49.036;12.112;2023-08-21T10:28:52;12.40;;;5.70;;
21095;SDS011;10706;49.036;12.112;2023-08-21T10:34:04;14.82;;;5.82;;
21095;SDS011;10706;49.036;12.112;2023-08-21T10:39:20;15.18;;;5.72;;
21095;SDS011;10706;49.036;12.112;2023-08-21T10:42:00;14.15;;;5.18;;
21095;SDS011;10706;49.036;12.112;2023-08-21T10:44:34;15.35;;;6.00;;
21095;SDS011;10706;49.036;12.112;2023-08-21T10:49:55;10.93;;;5.38;;
21095;SDS011;10706;49.036;12.112;2023-08-21T10:52:30;11.90;;;5.88;;
21095;SDS011;10706;49.036;12.112;2023-08-21T10:55:13;16.27;;;5.88;;
21095;SDS011;10706;49.036;12.112;2023-08-21T10:57:40;19.20;;;6.25;;
21095;SDS011;10706;49.036;12.112;2023-08-21T11:00:13;22.85;;;6.50;;
21095;SDS011;10706;49.036;12.112;2023-08-21T11:02:43;13.50;;;5.68;;
21095;SDS011;10706;49.036;12.112;2023-08-21T11:05:11;15.30;;;5.63;;
21095;SDS011;10706;49.036;12.112;2023-08-21T11:07:41;14.00;;;5.43;;
21095;SDS011;10706;49.036;12.112;2023-08-21T11:10:13;13.07;;;5.65;;
21095;SDS011;10706;49.036;12.112;2023-08-21T11:12:53;13.43;;;5.80;;
21095;SDS011;10706;49.036;12.112;2023-08-21T11:15:21;11.77;;;5.63;;
21095;SDS011;10706;49.036;12.112;2023-08-21T11:17:57;17.20;;;5.60;;
21095;SDS011;10706;49.036;12.112;2023-08-21T11:20:35;10.52;;;5.32;;
21095;SDS011;10706;49.036;12.112;2023-08-21T11:23:02;12.15;;;5.43;;
21095;SDS011;10706;49.036;12.112;2023-08-21T11:25:31;14.13;;;5.60;;
21095;SDS011;10706;49.036;12.112;2023-08-21T11:27:59;13.70;;;5.50;;
21095;SDS011;10706;49.036;12.112;2023-08-21T11:30:27;17.00;;;6.03;;
21095;SDS011;10706;49.036;12.112;2023-08-21T11:33:09;15.07;;;5.25;;
21095;SDS011;10706;49.036;12.112;2023-08-21T11:35:37;19.55;;;5.78;;
21095;SDS011;10706;49.036;12.112;2023-08-21T11:38:04;13.82;;;5.28;;
21095;SDS011;10706;49.036;12.112;2023-08-21T11:40:30;14.45;;;5.78;;
21095;SDS011;10706;49.036;12.112;2023-08-21T11:43:02;16.23;;;6.35;;
21095;SDS011;10706;49.036;12.112;2023-08-21T11:45:30;11.48;;;5.97;;
21095;SDS011;10706;49.036;12.112;2023-08-21T11:47:56;14.68;;;5.63;;
21095;SDS011;10706;49.036;12.112;2023-08-21T11:50:22;12.15;;;5.90;;
21095;SDS011;10706;49.036;12.112;2023-08-21T11:52:51;16.83;;;5.65;;
21095;SDS011;10706;49.036;12.112;2023-08-21T11:55:17;11.35;;;5.63;;
21095;SDS011;10706;49.036;12.112;2023-08-21T11:57:48;13.10;;;5.97;;
21095;SDS011;10706;49.036;12.112;2023-08-21T12:00:14;12.60;;;5.63;;
21095;SDS011;10706;49.036;12.112;2023-08-21T12:02:53;16.23;;;5.38;;
21095;SDS011;10706;49.036;12.112;2023-08-21T12:05:23;17.30;;;5.55;;
21095;SDS011;10706;49.036;12.112;2023-08-21T12:07:49;28.65;;;6.60;;
21095;SDS011;10706;49.036;12.112;2023-08-21T12:10:22;12.32;;;5.47;;
21095;SDS011;10706;49.036;12.112;2023-08-21T12:12:54;18.83;;;5.68;;
21095;SDS011;10706;49.036;12.112;2023-08-21T12:15:21;14.10;;;5.97;;
21095;SDS011;10706;49.036;12.112;2023-08-21T12:17:46;9.90;;;4.68;;
21095;SDS011;10706;49.036;12.112;2023-08-21T12:20:12;12.15;;;5.30;;
21095;SDS011;10706;49.036;12.112;2023-08-21T12:22:38;13.75;;;5.00;;
21095;SDS011;10706;49.036;12.112;2023-08-21T12:25:05;12.23;;;5.35;;
21095;SDS011;10706;49.036;12.112;2023-08-21T12:27:32;8.85;;;4.80;;
21095;SDS011;10706;49.036;12.112;2023-08-21T12:29:58;10.27;;;4.72;;
21095;SDS011;10706;49.036;12.112;2023-08-21T12:32:23;9.45;;;4.63;;
21095;SDS011;10706;49.036;12.112;2023-08-21T12:34:49;10.48;;;4.97;;
21095;SDS011;10706;49.036;12.112;2023-08-21T12:37:15;11.70;;;4.95;;
21095;SDS011;10706;49.036;12.112;2023-08-21T12:39:41;13.68;;;6.10;;
21095;SDS011;10706;49.036;12.112;2023-08-21T12:42:06;8.68;;;4.15;;
21095;SDS011;10706;49.036;12.112;2023-08-21T12:44:33;9.85;;;4.75;;
21095;SDS011;10706;49.036;12.112;2023-08-21T12:47:01;20.08;;;4.68;;
21095;SDS011;10706;49.036;12.112;2023-08-21T12:49:27;8.93;;;4.00;;
21095;SDS011;10706;49.036;12.112;2023-08-21T12:51:53;11.60;;;4.13;;
21095;SDS011;10706;49.036;12.112;2023-08-21T12:54:20;7.00;;;3.97;;
21095;SDS011;10706;49.036;12.112;2023-08-21T12:56:46;7.32;;;4.50;;
21095;SDS011;10706;49.036;12.112;2023-08-21T12:59:12;9.52;;;4.55;;
21095;SDS011;10706;49.036;12.112;2023-08-21T13:01:38;10.80;;;4.47;;
21095;SDS011;10706;49.036;12.112;2023-08-21T13:04:04;11.18;;;4.50;;
21095;SDS011;10706;49.036;12.112;2023-08-21T13:06:30;11.52;;;4.22;;
21095;SDS011;10706;49.036;12.112;2023-08-21T13:08:56;10.90;;;4.18;;
21095;SDS011;10706;49.036;12.112;2023-08-21T13:11:22;9.93;;;4.00;;
21095;SDS011;10706;49.036;12.112;2023-08-21T13:13:47;8.85;;;3.95;;
21095;SDS011;10706;49.036;12.112;2023-08-21T13:16:13;11.95;;;4.60;;
21095;SDS011;10706;49.036;12.112;2023-08-21T13:18:39;12.43;;;4.28;;
21095;SDS011;10706;49.036;12.112;2023-08-21T13:21:05;10.45;;;4.68;;
21095;SDS011;10706;49.036;12.112;2023-08-21T13:23:30;7.22;;;4.10;;
21095;SDS011;10706;49.036;12.112;2023-08-21T13:25:59;10.90;;;4.20;;
21095;SDS011;10706;49.036;12.112;2023-08-21T13:28:24;10.88;;;4.50;;
21095;SDS011;10706;49.036;12.112;2023-08-21T13:30:50;11.55;;;4.20;;
21095;SDS011;10706;49.036;12.112;2023-08-21T13:33:17;8.82;;;4.18;;
21095;SDS011;10706;49.036;12.112;2023-08-21T13:35:46;10.43;;;4.43;;
21095;SDS011;10706;49.036;12.112;2023-08-21T13:38:12;11.52;;;4.28;;
21095;SDS011;10706;49.036;12.112;2023-08-21T13:40:38;10.80;;;5.03;;
21095;SDS011;10706;49.036;12.112;2023-08-21T13:43:05;16.55;;;4.65;;
21095;SDS011;10706;49.036;12.112;2023-08-21T13:45:32;13.45;;;4.75;;
21095;SDS011;10706;49.036;12.112;2023-08-21T13:47:58;10.45;;;4.50;;
21095;SDS011;10706;49.036;12.112;2023-08-21T13:50:24;13.63;;;5.40;;
21095;SDS011;10706;49.036;12.112;2023-08-21T13:52:50;10.52;;;4.65;;
21095;SDS011;10706;49.036;12.112;2023-08-21T13:55:16;14.55;;;4.93;;
21095;SDS011;10706;49.036;12.112;2023-08-21T13:57:42;11.07;;;4.63;;
21095;SDS011;10706;49.036;12.112;2023-08-21T14:00:09;10.20;;;4.50;;
21095;SDS011;10706;49.036;12.112;2023-08-21T14:02:39;12.90;;;4.80;;
21095;SDS011;10706;49.036;12.112;2023-08-21T14:05:06;13.60;;;5.07;;
21095;SDS011;10706;49.036;12.112;2023-08-21T14:07:33;11.63;;;4.63;;
21095;SDS011;10706;49.036;12.112;2023-08-21T14:10:00;14.07;;;5.13;;
21095;SDS011;10706;49.036;12.112;2023-08-21T14:12:29;10.98;;;4.97;;
21095;SDS011;10706;49.036;12.112;2023-08-21T14:14:56;13.93;;;5.82;;
21095;SDS011;10706;49.036;12.112;2023-08-21T14:17:23;12.43;;;5.13;;
21095;SDS011;10706;49.036;12.112;2023-08-21T14:19:49;13.18;;;5.13;;
21095;SDS011;10706;49.036;12.112;2023-08-21T14:22:15;10.45;;;5.18;;
21095;SDS011;10706;49.036;12.112;2023-08-21T14:24:41;10.00;;;5.13;;
21095;SDS011;10706;49.036;12.112;2023-08-21T14:27:06;13.05;;;5.00;;
21095;SDS011;10706;49.036;12.112;2023-08-21T14:29:32;11.90;;;5.63;;
21095;SDS011;10706;49.036;12.112;2023-08-21T14:31:58;10.68;;;5.20;;
21095;SDS011;10706;49.036;12.112;2023-08-21T14:34:25;14.27;;;5.20;;
21095;SDS011;10706;49.036;12.112;2023-08-21T14:36:53;11.95;;;5.68;;
21095;SDS011;10706;49.036;12.112;2023-08-21T14:39:21;11.27;;;5.22;;